Time;durP1;ratioP1;P1;durP2;ratioP2;P2;SDS_P1;SDS_P2;PMS_P1;PMS_P2;Temp;Humidity;BMP_temperature;BMP_pressure;BME280_temperature;BME280_humidity;BME280_pressure;Samples;Min_cycle;Max_cycle;Signal;HPM_P1;HPM_P2
2023/02/21 02:14:02;;;;;;;7.35;6.22;;;9.10;99.90;;;;;;4976467;28;20043;-78
2023/02/21 02:16:28;;;;;;;9.43;6.88;;;9.10;99.90;;;;;;4975432;28;20458;-78
2023/02/21 02:18:55;;;;;;;7.85;6.70;;;9.10;99.90;;;;;;4974526;28;20046;-77
2023/02/21 02:21:22;;;;;;;7.60;6.20;;;9.10;99.90;;;;;;4959123;28;20458;-78
2023/02/21 02:23:48;;;;;;;8.02;6.70;;;9.10;99.90;;;;;;4975166;28;20046;-78
2023/02/21 02:26:15;;;;;;;8.30;6.55;;;9.10;99.90;;;;;;4976335;28;20454;-79
2023/02/21 02:28:41;;;;;;;7.13;6.43;;;9.10;99.90;;;;;;4974690;28;20078;-78
2023/02/21 02:31:09;;;;;;;7.53;6.78;;;9.10;99.90;;;;;;4974425;28;20039;-77
2023/02/21 02:33:37;;;;;;;8.25;6.60;;;9.10;99.90;;;;;;4975281;28;20034;-79
2023/02/21 02:36:03;;;;;;;6.97;6.28;;;9.10;99.90;;;;;;4990708;28;20104;-78
2023/02/21 02:38:30;;;;;;;8.98;7.68;;;9.10;99.90;;;;;;4993205;28;20050;-79
2023/02/21 02:40:57;;;;;;;7.13;6.43;;;9.10;99.90;;;;;;4994510;28;20049;-77
2023/02/21 02:43:24;;;;;;;7.93;7.13;;;9.10;99.90;;;;;;4994617;28;20078;-77
2023/02/21 02:45:50;;;;;;;9.48;6.93;;;9.10;99.90;;;;;;4993366;28;20042;-78
2023/02/21 02:48:19;;;;;;;7.38;6.57;;;9.10;99.90;;;;;;4994541;28;20042;-77
2023/02/21 02:50:47;;;;;;;9.25;6.75;;;9.10;99.90;;;;;;4994132;28;20043;-78
2023/02/21 02:53:15;;;;;;;7.22;6.53;;;9.10;99.90;;;;;;4994185;28;20046;-78
2023/02/21 02:55:42;;;;;;;7.68;6.57;;;9.10;99.90;;;;;;4994402;28;20054;-78
2023/02/21 02:58:08;;;;;;;7.18;6.47;;;9.10;99.90;;;;;;4992987;28;20053;-77
2023/02/21 03:00:35;;;;;;;7.55;5.95;;;9.10;99.90;;;;;;4993939;28;20042;-76
2023/02/21 03:03:03;;;;;;;7.05;6.00;;;9.10;99.90;;;;;;4994992;28;20042;-78
2023/02/21 03:05:30;;;;;;;9.30;7.15;;;9.10;99.90;;;;;;4993059;28;20105;-79
2023/02/21 03:07:57;;;;;;;9.80;7.13;;;9.10;99.90;;;;;;4993842;28;20138;-78
2023/02/21 03:10:23;;;;;;;8.05;7.25;;;9.10;99.90;;;;;;4993906;28;20093;-80
2023/02/21 03:12:52;;;;;;;6.70;5.82;;;9.10;99.90;;;;;;4994176;28;20137;-78
2023/02/21 03:15:20;;;;;;;6.55;5.93;;;9.10;99.90;;;;;;4993907;28;20035;-78
2023/02/21 03:17:47;;;;;;;7.25;6.47;;;9.20;99.90;;;;;;4992664;28;20042;-77
2023/02/21 03:20:15;;;;;;;8.68;7.00;;;9.20;99.90;;;;;;4993415;28;20080;-79
2023/02/21 03:22:41;;;;;;;6.85;6.15;;;9.10;99.90;;;;;;4993774;28;20047;-78
2023/02/21 03:25:08;;;;;;;8.38;6.80;;;9.10;99.90;;;;;;4975515;28;20042;-77
2023/02/21 03:27:36;;;;;;;7.97;6.32;;;9.10;99.90;;;;;;4958603;28;20130;-77
2023/02/21 03:30:12;;;;;;;7.80;6.97;;;9.10;99.90;;;;;;4974710;28;20076;-77
2023/02/21 03:32:40;;;;;;;7.43;6.70;;;9.10;99.90;;;;;;4958121;28;20545;-77
2023/02/21 03:35:07;;;;;;;7.13;6.43;;;9.10;99.90;;;;;;4978801;28;20469;-79
2023/02/21 03:37:36;;;;;;;8.05;5.55;;;9.10;99.90;;;;;;4976726;28;20095;-78
2023/02/21 03:40:02;;;;;;;7.70;6.68;;;9.20;99.90;;;;;;4977374;28;20532;-79
2023/02/21 03:42:31;;;;;;;7.35;6.65;;;9.10;99.90;;;;;;4961954;28;20061;-79
2023/02/21 03:44:59;;;;;;;7.00;6.28;;;9.10;99.90;;;;;;4960721;28;20054;-78
2023/02/21 03:47:26;;;;;;;9.95;7.20;;;9.10;99.90;;;;;;4961639;28;20097;-77
2023/02/21 03:49:53;;;;;;;7.47;6.72;;;9.10;99.90;;;;;;4977147;28;20035;-77
2023/02/21 03:52:20;;;;;;;7.25;6.30;;;9.20;99.90;;;;;;4960426;28;20499;-78
2023/02/21 03:54:47;;;;;;;7.10;5.97;;;9.20;99.90;;;;;;4961569;28;20050;-77
2023/02/21 03:57:18;;;;;;;6.20;5.60;;;9.10;99.90;;;;;;4960656;28;20154;-78
2023/02/21 03:59:46;;;;;;;8.32;6.50;;;9.10;99.90;;;;;;4977114;28;20047;-78
2023/02/21 04:02:14;;;;;;;8.05;5.88;;;9.10;99.90;;;;;;4977289;28;20043;-78
2023/02/21 04:04:41;;;;;;;6.53;5.82;;;9.20;99.90;;;;;;4976297;28;20042;-78
2023/02/21 04:07:12;;;;;;;8.23;6.93;;;9.10;99.90;;;;;;4977427;28;20105;-77
2023/02/21 04:09:40;;;;;;;8.13;5.75;;;9.20;99.90;;;;;;4960837;28;20121;-78
2023/02/21 04:12:08;;;;;;;8.20;6.30;;;9.20;99.90;;;;;;4976118;28;20043;-78
2023/02/21 04:14:37;;;;;;;6.95;6.15;;;9.20;99.90;;;;;;4977164;28;20042;-78
2023/02/21 04:17:04;;;;;;;7.82;6.22;;;9.20;99.90;;;;;;4975936;28;20065;-77
2023/02/21 04:19:31;;;;;;;9.00;6.22;;;9.20;99.90;;;;;;4976762;28;20053;-79
2023/02/21 04:21:58;;;;;;;7.35;6.05;;;9.20;99.90;;;;;;4976975;28;20045;-78
2023/02/21 04:24:25;;;;;;;6.65;5.90;;;9.20;99.90;;;;;;4976600;28;20045;-79
2023/02/21 04:26:51;;;;;;;7.50;6.55;;;9.10;99.90;;;;;;4976950;28;20039;-77
2023/02/21 04:29:20;;;;;;;6.32;5.15;;;9.10;99.90;;;;;;4976346;28;20039;-77
2023/02/21 04:31:47;;;;;;;8.85;6.65;;;9.10;99.90;;;;;;4975811;28;20046;-78
2023/02/21 04:34:15;;;;;;;7.75;6.70;;;9.10;99.90;;;;;;4976785;28;20053;-79
2023/02/21 04:36:44;;;;;;;7.18;6.47;;;9.10;99.90;;;;;;4976680;28;20349;-78
2023/02/21 04:39:10;;;;;;;6.60;5.57;;;9.10;99.90;;;;;;4959405;28;20488;-78
2023/02/21 04:41:38;;;;;;;8.10;6.35;;;9.10;99.90;;;;;;4960740;28;20406;-78
2023/02/21 04:44:05;;;;;;;6.50;5.63;;;9.10;99.90;;;;;;4975185;28;20047;-78
2023/02/21 04:46:32;;;;;;;6.32;5.55;;;9.20;99.90;;;;;;4976713;28;20058;-78
2023/02/21 04:49:00;;;;;;;7.75;5.50;;;9.10;99.90;;;;;;4976184;28;20105;-79
2023/02/21 04:51:26;;;;;;;7.95;5.88;;;9.10;99.90;;;;;;4976336;28;20461;-79
2023/02/21 04:53:54;;;;;;;6.05;5.45;;;9.10;99.90;;;;;;4977357;28;20035;-78
2023/02/21 04:56:20;;;;;;;5.80;5.18;;;9.10;99.90;;;;;;4977094;28;20050;-78
2023/02/21 04:58:47;;;;;;;8.13;5.40;;;9.10;99.90;;;;;;4975817;28;20046;-78
2023/02/21 05:01:14;;;;;;;7.82;5.72;;;9.10;99.90;;;;;;4977174;28;20457;-78
2023/02/21 05:03:41;;;;;;;5.93;5.30;;;9.10;99.90;;;;;;4977272;28;20057;-78
2023/02/21 05:06:07;;;;;;;7.43;5.03;;;9.10;99.90;;;;;;4976181;28;20450;-78
2023/02/21 05:08:34;;;;;;;5.70;5.13;;;9.20;99.90;;;;;;4976743;28;20532;-78
2023/02/21 05:11:01;;;;;;;5.72;5.07;;;9.10;99.90;;;;;;4975902;28;20034;-78
2023/02/21 05:13:27;;;;;;;6.90;5.70;;;9.10;99.90;;;;;;4977293;28;20047;-78
2023/02/21 05:15:54;;;;;;;6.78;6.07;;;9.10;99.90;;;;;;4976103;28;20039;-79
2023/02/21 05:18:27;;;;;;;7.78;6.28;;;9.10;99.90;;;;;;4975493;28;20042;-77
2023/02/21 05:20:54;;;;;;;6.38;5.72;;;9.10;99.90;;;;;;4976189;28;20168;-78
2023/02/21 05:23:32;;;;;;;6.50;5.40;;;9.10;99.90;;;;;;4975966;28;20076;-78
2023/02/21 05:25:59;;;;;;;6.15;5.50;;;9.10;99.90;;;;;;4975710;28;20384;-78
2023/02/21 05:28:26;;;;;;;6.70;5.82;;;9.10;99.90;;;;;;4975623;28;20089;-78
2023/02/21 05:30:53;;;;;;;7.32;5.72;;;9.10;99.90;;;;;;4974867;28;20039;-77
2023/02/21 05:33:19;;;;;;;7.28;5.80;;;9.10;99.90;;;;;;4976557;28;20150;-78
2023/02/21 05:35:47;;;;;;;8.80;6.47;;;9.10;99.90;;;;;;4976980;28;20138;-79
2023/02/21 05:38:13;;;;;;;7.10;6.05;;;9.00;99.90;;;;;;4974616;28;20061;-78
2023/02/21 05:40:40;;;;;;;8.38;6.45;;;9.00;99.90;;;;;;4976576;28;20046;-78
2023/02/21 05:43:06;;;;;;;9.70;7.10;;;9.00;99.90;;;;;;4975666;28;20065;-77
2023/02/21 05:45:33;;;;;;;8.48;6.95;;;9.00;99.90;;;;;;4974349;28;20054;-78
2023/02/21 05:48:01;;;;;;;7.75;6.80;;;9.00;99.90;;;;;;4975178;28;20441;-79
2023/02/21 05:50:27;;;;;;;8.18;6.57;;;9.00;99.90;;;;;;4975300;28;20049;-79
2023/02/21 05:52:54;;;;;;;9.18;7.72;;;9.00;99.90;;;;;;4975551;28;20508;-78
2023/02/21 05:55:21;;;;;;;7.30;6.13;;;9.00;99.90;;;;;;4974746;28;20062;-78
2023/02/21 05:57:47;;;;;;;6.55;5.57;;;9.00;99.90;;;;;;4974877;28;20055;-78
2023/02/21 06:00:14;;;;;;;7.28;5.80;;;9.00;99.90;;;;;;4975318;28;20377;-78
2023/02/21 06:02:40;;;;;;;6.22;5.57;;;9.10;99.90;;;;;;4975334;28;20049;-79
2023/02/21 06:05:07;;;;;;;5.88;5.28;;;9.10;99.90;;;;;;4975321;28;20054;-78
2023/02/21 06:07:34;;;;;;;6.78;5.25;;;9.10;99.90;;;;;;4976172;28;20035;-78
2023/02/21 06:10:00;;;;;;;6.50;5.75;;;9.10;99.90;;;;;;4976287;28;20034;-78
2023/02/21 06:12:27;;;;;;;6.50;5.03;;;9.10;99.90;;;;;;4975060;28;20043;-78
2023/02/21 06:14:54;;;;;;;6.18;4.97;;;9.10;99.90;;;;;;4977602;28;20548;-78
2023/02/21 06:17:20;;;;;;;8.55;5.32;;;9.10;99.90;;;;;;4975581;28;20042;-78
2023/02/21 06:19:47;;;;;;;6.88;6.15;;;9.10;99.90;;;;;;4975219;28;20046;-78
2023/02/21 06:22:14;;;;;;;7.22;6.40;;;9.10;99.90;;;;;;4976051;28;20129;-78
2023/02/21 06:24:40;;;;;;;7.68;5.75;;;9.10;99.90;;;;;;4974908;28;20057;-78
2023/02/21 06:27:07;;;;;;;7.38;6.07;;;9.00;99.90;;;;;;4974955;28;20050;-78
2023/02/21 06:29:34;;;;;;;7.15;6.20;;;9.00;99.90;;;;;;4974483;28;20042;-78
2023/02/21 06:32:00;;;;;;;8.93;5.88;;;9.00;99.90;;;;;;4974041;28;20056;-78
2023/02/21 06:34:27;;;;;;;6.10;5.47;;;9.00;99.90;;;;;;4975807;28;20097;-78
2023/02/21 06:36:53;;;;;;;6.20;5.43;;;9.00;99.90;;;;;;4974848;28;20038;-77
2023/02/21 06:39:20;;;;;;;7.22;6.05;;;9.00;99.90;;;;;;4973510;28;20050;-78
2023/02/21 06:41:47;;;;;;;7.18;6.00;;;9.00;99.90;;;;;;4975572;28;20051;-77
2023/02/21 06:44:13;;;;;;;6.57;5.88;;;9.00;99.90;;;;;;4974601;28;20050;-78
2023/02/21 06:46:40;;;;;;;6.75;5.47;;;9.00;99.90;;;;;;4975596;28;20058;-79
2023/02/21 06:49:06;;;;;;;7.95;5.93;;;9.00;99.90;;;;;;4975195;28;20495;-78
2023/02/21 06:51:33;;;;;;;7.13;6.00;;;9.00;99.90;;;;;;4974794;28;20047;-78
2023/02/21 06:54:00;;;;;;;6.13;5.30;;;9.00;99.90;;;;;;4975800;28;20471;-78
2023/02/21 06:56:26;;;;;;;6.13;4.85;;;9.00;99.90;;;;;;4974365;28;20143;-77
2023/02/21 06:58:53;;;;;;;6.05;5.45;;;8.90;99.90;;;;;;4973186;28;20061;-79
2023/02/21 07:01:20;;;;;;;5.28;4.40;;;9.00;99.90;;;;;;4975537;28;20043;-78
2023/02/21 07:03:46;;;;;;;5.75;4.80;;;9.00;99.90;;;;;;4973512;28;20089;-78
2023/02/21 07:06:13;;;;;;;6.50;5.57;;;9.00;99.90;;;;;;4974747;28;20050;-78
2023/02/21 07:08:39;;;;;;;5.53;4.72;;;8.90;99.90;;;;;;4977985;28;20050;-77
2023/02/21 07:11:06;;;;;;;6.32;5.20;;;9.00;99.90;;;;;;4977185;28;20045;-77
2023/02/21 07:13:33;;;;;;;6.63;5.10;;;9.00;99.90;;;;;;4979374;28;20065;-77
2023/02/21 07:15:59;;;;;;;5.90;5.28;;;9.00;99.90;;;;;;4979241;28;20425;-78
2023/02/21 07:18:26;;;;;;;6.45;5.72;;;9.00;99.90;;;;;;4976808;28;20078;-78
2023/02/21 07:20:53;;;;;;;6.80;4.75;;;9.00;99.90;;;;;;4978255;28;20054;-77
2023/02/21 07:23:19;;;;;;;8.48;5.43;;;9.00;99.90;;;;;;4978926;28;20047;-78
2023/02/21 07:25:46;;;;;;;6.35;5.60;;;9.00;99.90;;;;;;4977927;28;20369;-78
2023/02/21 07:28:12;;;;;;;6.22;4.95;;;9.00;99.90;;;;;;4961647;28;20382;-78
2023/02/21 07:30:39;;;;;;;7.13;5.65;;;9.00;99.90;;;;;;4977899;28;20047;-78
2023/02/21 07:33:06;;;;;;;6.68;5.55;;;8.90;99.90;;;;;;4978900;28;20042;-78
2023/02/21 07:35:33;;;;;;;8.10;6.30;;;9.00;99.90;;;;;;4978865;28;20099;-78
2023/02/21 07:38:00;;;;;;;7.45;6.00;;;9.00;99.90;;;;;;4977136;28;20046;-78
2023/02/21 07:40:26;;;;;;;7.30;5.75;;;9.10;99.90;;;;;;4978666;28;20416;-79
2023/02/21 07:42:53;;;;;;;6.13;5.20;;;9.10;99.90;;;;;;4977897;28;20061;-78
2023/02/21 07:45:21;;;;;;;6.05;5.43;;;9.10;99.90;;;;;;4977634;28;20122;-78
2023/02/21 07:47:49;;;;;;;6.88;5.40;;;9.10;99.90;;;;;;4961256;28;20043;-79
2023/02/21 07:50:16;;;;;;;6.67;5.90;;;9.10;99.90;;;;;;4978534;28;20497;-78
2023/02/21 07:52:43;;;;;;;6.60;5.90;;;9.10;99.90;;;;;;4979896;28;20465;-77
2023/02/21 07:55:11;;;;;;;7.18;5.95;;;9.10;99.90;;;;;;4997247;28;20038;-79
2023/02/21 07:57:37;;;;;;;7.72;5.63;;;9.10;99.90;;;;;;4995520;28;20054;-77
2023/02/21 08:00:04;;;;;;;6.35;5.75;;;9.10;99.90;;;;;;4996999;28;20046;-78
2023/02/21 08:02:38;;;;;;;8.35;6.82;;;9.10;99.90;;;;;;4997132;28;20057;-78
2023/02/21 08:05:04;;;;;;;7.18;6.03;;;9.10;99.90;;;;;;4995842;28;20042;-77
2023/02/21 08:07:31;;;;;;;8.23;7.32;;;9.20;99.90;;;;;;4993967;28;20046;-78
2023/02/21 08:09:58;;;;;;;8.55;6.90;;;9.20;99.90;;;;;;4996464;28;20356;-78
2023/02/21 08:12:25;;;;;;;6.55;5.85;;;9.20;99.90;;;;;;4989452;28;20049;-78
2023/02/21 08:14:51;;;;;;;6.55;5.32;;;9.20;99.90;;;;;;4978065;28;20039;-78
2023/02/21 08:17:18;;;;;;;8.20;6.32;;;9.20;99.90;;;;;;4978729;28;20054;-78
2023/02/21 08:19:44;;;;;;;7.60;6.13;;;9.30;99.90;;;;;;4976284;28;20042;-80
2023/02/21 08:22:13;;;;;;;7.30;6.05;;;9.20;99.90;;;;;;4977929;28;20043;-77
2023/02/21 08:24:40;;;;;;;6.00;5.40;;;9.30;99.90;;;;;;4962976;28;20051;-78
2023/02/21 08:27:06;;;;;;;8.82;6.18;;;9.30;99.90;;;;;;4957662;29;20463;-79
2023/02/21 08:29:33;;;;;;;7.88;7.07;;;9.30;99.90;;;;;;4990839;28;20070;-80
2023/02/21 08:32:00;;;;;;;9.30;6.90;;;9.40;99.90;;;;;;4996496;28;20053;-78
2023/02/21 08:34:28;;;;;;;7.75;6.53;;;9.40;99.90;;;;;;4996084;28;20420;-80
2023/02/21 08:36:55;;;;;;;10.10;7.30;;;9.50;99.90;;;;;;4997479;28;20367;-77
2023/02/21 08:39:21;;;;;;;7.97;6.20;;;9.50;99.90;;;;;;4996259;28;20061;-78
2023/02/21 08:41:51;;;;;;;9.32;7.07;;;9.40;99.90;;;;;;4997702;28;20046;-79
2023/02/21 08:44:20;;;;;;;8.00;6.78;;;9.30;99.90;;;;;;4996371;28;20153;-78
2023/02/21 08:46:47;;;;;;;8.85;7.30;;;9.30;99.90;;;;;;4996987;28;20039;-78
2023/02/21 08:49:15;;;;;;;8.82;7.40;;;9.30;99.90;;;;;;4995898;28;20113;-78
2023/02/21 08:51:42;;;;;;;8.38;7.28;;;9.30;99.90;;;;;;4996383;28;20472;-78
2023/02/21 08:54:08;;;;;;;9.05;6.93;;;9.30;99.90;;;;;;4997203;28;20512;-79
2023/02/21 08:56:35;;;;;;;8.18;6.20;;;9.30;99.90;;;;;;4996871;28;20042;-80
2023/02/21 08:59:02;;;;;;;7.93;7.13;;;9.40;99.90;;;;;;4994729;28;20440;-78
2023/02/21 09:01:29;;;;;;;10.93;7.93;;;9.50;99.90;;;;;;4996907;28;20469;-78
2023/02/21 09:03:56;;;;;;;9.00;7.28;;;9.50;99.90;;;;;;4992048;28;20057;-86
2023/02/21 09:06:22;;;;;;;9.32;7.20;;;9.50;99.90;;;;;;4976128;28;20062;-80
2023/02/21 09:08:49;;;;;;;38.28;9.73;;;9.50;99.90;;;;;;4968399;28;20438;-79
2023/02/21 09:11:16;;;;;;;10.18;8.00;;;9.60;99.90;;;;;;4974772;28;20046;-79
2023/02/21 09:13:43;;;;;;;11.40;7.75;;;9.70;99.90;;;;;;4975923;28;20046;-80
2023/02/21 09:16:09;;;;;;;11.50;7.15;;;9.70;99.90;;;;;;4976552;28;20105;-79
2023/02/21 09:18:36;;;;;;;8.13;6.45;;;9.80;99.90;;;;;;4974566;28;20123;-79
2023/02/21 09:21:03;;;;;;;9.32;7.18;;;9.70;99.90;;;;;;4976427;28;20119;-79
2023/02/21 09:23:29;;;;;;;9.27;7.55;;;9.70;99.90;;;;;;4962731;28;20046;-79
2023/02/21 09:25:57;;;;;;;10.32;7.55;;;9.70;99.90;;;;;;4976121;28;20061;-82
2023/02/21 09:28:24;;;;;;;8.88;6.97;;;9.80;99.90;;;;;;4976186;28;20492;-79
2023/02/21 09:30:50;;;;;;;9.85;7.88;;;9.80;99.90;;;;;;4980682;28;20445;-78
2023/02/21 09:33:17;;;;;;;9.05;6.80;;;9.90;99.90;;;;;;4991506;28;20049;-80
2023/02/21 09:35:43;;;;;;;7.82;6.50;;;9.90;99.90;;;;;;4994926;28;20046;-79
2023/02/21 09:38:10;;;;;;;7.85;6.95;;;9.90;99.90;;;;;;4991614;28;20046;-78
2023/02/21 09:40:37;;;;;;;9.57;7.13;;;9.90;99.90;;;;;;4984104;28;20046;-78
2023/02/21 09:43:05;;;;;;;9.35;7.47;;;10.00;99.90;;;;;;4967323;28;20065;-77
2023/02/21 09:45:32;;;;;;;10.00;7.43;;;10.00;99.90;;;;;;4977412;28;20042;-78
2023/02/21 09:47:58;;;;;;;8.93;6.90;;;10.00;99.90;;;;;;4984406;28;20230;-79
2023/02/21 09:50:26;;;;;;;9.73;7.25;;;10.00;99.90;;;;;;4983712;28;20039;-79
2023/02/21 09:52:54;;;;;;;17.55;8.20;;;10.10;99.90;;;;;;4985018;28;20038;-79
2023/02/21 09:55:21;;;;;;;10.55;7.30;;;10.10;99.90;;;;;;4985690;28;20042;-79
2023/02/21 09:57:47;;;;;;;14.02;7.85;;;10.20;99.90;;;;;;4982579;28;20134;-79
2023/02/21 10:00:14;;;;;;;11.18;8.85;;;10.20;99.90;;;;;;4982078;28;20062;-79
2023/02/21 10:02:42;;;;;;;9.27;7.93;;;10.30;99.90;;;;;;4973248;28;20100;-79
2023/02/21 10:05:09;;;;;;;10.90;8.23;;;10.20;99.90;;;;;;4982642;28;20061;-80
2023/02/21 10:07:35;;;;;;;12.48;8.45;;;10.30;99.90;;;;;;4980284;28;20049;-80
2023/02/21 10:10:02;;;;;;;10.90;9.35;;;10.40;99.90;;;;;;4982228;28;20358;-79
2023/02/21 10:12:30;;;;;;;9.32;7.65;;;10.40;99.90;;;;;;4993008;28;20121;-81
2023/02/21 10:14:56;;;;;;;8.98;7.68;;;10.50;99.90;;;;;;4994331;28;20038;-80
2023/02/21 10:17:23;;;;;;;9.63;8.05;;;10.50;99.90;;;;;;4994079;28;20080;-79
2023/02/21 10:19:50;;;;;;;10.63;8.63;;;10.60;99.90;;;;;;4994164;28;20042;-80
2023/02/21 10:22:18;;;;;;;11.93;7.93;;;10.50;99.90;;;;;;4995174;28;20042;-79
2023/02/21 10:24:45;;;;;;;12.25;8.90;;;10.50;99.90;;;;;;4978581;28;20152;-81
2023/02/21 10:27:11;;;;;;;12.15;9.00;;;10.50;99.90;;;;;;4981752;28;20042;-80
2023/02/21 10:29:38;;;;;;;12.20;8.55;;;10.50;99.90;;;;;;4992748;28;20035;-81
2023/02/21 10:32:06;;;;;;;13.52;9.07;;;10.60;99.90;;;;;;4983225;28;20434;-80
2023/02/21 10:34:32;;;;;;;11.25;8.05;;;10.50;99.90;;;;;;4974865;28;20067;-80
2023/02/21 10:37:03;;;;;;;10.73;8.48;;;10.60;99.90;;;;;;4974801;28;20038;-80
2023/02/21 10:39:30;;;;;;;13.02;9.05;;;10.60;99.90;;;;;;4958864;28;20377;-80
2023/02/21 10:41:58;;;;;;;11.57;8.68;;;10.60;99.90;;;;;;4958211;28;20105;-80
2023/02/21 10:44:25;;;;;;;12.82;8.32;;;10.60;99.90;;;;;;4973829;28;20062;-81
2023/02/21 10:46:52;;;;;;;16.85;9.30;;;10.70;99.90;;;;;;4975583;28;20058;-80
2023/02/21 10:49:19;;;;;;;15.77;10.00;;;10.70;99.90;;;;;;4974912;28;20047;-80
2023/02/21 10:51:45;;;;;;;12.55;9.15;;;10.70;99.90;;;;;;4973369;28;20047;-80
2023/02/21 10:54:12;;;;;;;13.32;10.32;;;10.70;99.90;;;;;;4974414;28;20065;-81
2023/02/21 10:56:39;;;;;;;15.60;10.90;;;10.70;99.90;;;;;;4974453;28;20050;-81
2023/02/21 10:59:05;;;;;;;14.20;11.48;;;10.70;99.90;;;;;;4972740;28;20046;-81
2023/02/21 11:01:32;;;;;;;18.05;11.55;;;10.60;99.90;;;;;;4975122;28;20035;-81
2023/02/21 11:03:59;;;;;;;14.65;12.55;;;10.50;99.90;;;;;;4974014;28;20053;-81
2023/02/21 11:06:26;;;;;;;19.10;13.30;;;10.60;99.90;;;;;;4974984;28;20046;-81
2023/02/21 11:08:53;;;;;;;15.90;12.50;;;10.50;99.90;;;;;;4957856;28;20457;-80
2023/02/21 11:11:20;;;;;;;19.70;13.52;;;10.40;99.90;;;;;;4973464;28;20053;-80
2023/02/21 11:13:46;;;;;;;19.80;14.07;;;10.40;99.90;;;;;;4974967;28;20050;-81
2023/02/21 11:16:14;;;;;;;17.15;13.40;;;10.50;99.90;;;;;;4968314;28;20070;-80
2023/02/21 11:18:41;;;;;;;18.60;14.73;;;10.60;99.90;;;;;;4973292;28;20070;-81
2023/02/21 11:21:07;;;;;;;21.45;15.52;;;10.50;99.90;;;;;;4973822;28;20042;-81
2023/02/21 11:23:34;;;;;;;22.63;17.13;;;10.40;99.90;;;;;;4974160;28;20488;-81
2023/02/21 11:26:00;;;;;;;25.15;17.95;;;10.30;99.90;;;;;;4973506;28;20062;-81
2023/02/21 11:28:27;;;;;;;23.17;17.13;;;10.30;99.90;;;;;;4974587;28;20051;-81
2023/02/21 11:30:54;;;;;;;25.85;18.67;;;10.30;99.90;;;;;;4956841;28;20047;-81
2023/02/21 11:33:21;;;;;;;28.67;19.33;;;10.20;99.90;;;;;;4974105;28;20114;-80
2023/02/21 11:35:47;;;;;;;23.92;17.85;;;10.30;99.90;;;;;;4973786;28;20109;-80
2023/02/21 11:38:14;;;;;;;24.70;17.75;;;10.30;99.90;;;;;;4972735;28;20035;-80
2023/02/21 11:40:40;;;;;;;22.38;16.17;;;10.30;99.90;;;;;;4958150;28;20141;-82
2023/02/21 11:45:54;;;;;;;20.98;14.57;;;10.30;99.90;;;;;;4975236;28;20466;-81
2023/02/21 11:48:26;;;;;;;21.73;15.45;;;10.30;99.90;;;;;;4991901;28;20043;-81
2023/02/21 11:50:53;;;;;;;19.13;13.93;;;10.20;99.90;;;;;;4974223;28;20053;-82
2023/02/21 11:53:21;;;;;;;17.58;14.18;;;10.30;99.90;;;;;;4976491;28;20363;-83
2023/02/21 11:55:48;;;;;;;17.17;12.90;;;10.30;99.90;;;;;;4977304;28;20054;-80
2023/02/21 11:58:14;;;;;;;18.95;12.10;;;10.30;99.90;;;;;;4959598;28;20110;-83
2023/02/21 12:00:41;;;;;;;17.23;12.57;;;10.40;99.90;;;;;;4965412;28;20054;-80
2023/02/21 12:03:08;;;;;;;20.15;14.77;;;10.50;99.90;;;;;;4959044;28;20476;-80
2023/02/21 12:05:34;;;;;;;17.50;13.98;;;10.40;99.90;;;;;;4957501;29;20035;-80
2023/02/21 12:08:01;;;;;;;19.05;14.35;;;10.40;99.90;;;;;;4963206;28;20377;-81
2023/02/21 12:10:28;;;;;;;18.02;12.77;;;10.40;99.90;;;;;;4965249;28;20039;-81
2023/02/21 12:12:55;;;;;;;17.05;12.63;;;10.40;99.90;;;;;;4963604;28;20054;-82
2023/02/21 12:15:22;;;;;;;16.63;12.63;;;10.40;99.90;;;;;;4957852;29;20043;-82
2023/02/21 12:17:49;;;;;;;18.02;12.63;;;10.50;99.90;;;;;;4956666;29;20051;-80
2023/02/21 12:20:15;;;;;;;24.30;13.57;;;10.50;99.90;;;;;;4958805;28;20047;-80
2023/02/21 12:22:42;;;;;;;18.77;12.98;;;10.50;99.90;;;;;;4957835;28;20047;-80
2023/02/21 12:25:09;;;;;;;21.50;12.88;;;10.40;99.90;;;;;;4975648;28;20184;-80
2023/02/21 12:27:35;;;;;;;16.45;12.40;;;10.50;99.90;;;;;;4977397;28;20051;-81
2023/02/21 12:30:02;;;;;;;11.98;9.55;;;10.50;99.90;;;;;;4952936;28;20047;-81
2023/02/21 12:32:29;;;;;;;14.02;11.15;;;10.50;99.90;;;;;;4968619;28;20050;-82
2023/02/21 12:34:56;;;;;;;15.65;11.48;;;10.50;99.90;;;;;;4977987;28;20157;-82
2023/02/21 12:37:22;;;;;;;16.15;11.18;;;10.50;99.90;;;;;;4975797;28;20050;-81
2023/02/21 12:39:49;;;;;;;15.60;10.85;;;10.50;99.90;;;;;;4976882;28;20046;-81
2023/02/21 12:42:17;;;;;;;14.77;11.63;;;10.40;99.90;;;;;;4960681;28;20086;-81
2023/02/21 12:44:44;;;;;;;14.25;10.63;;;10.40;99.90;;;;;;4960117;28;20046;-80
2023/02/21 12:47:10;;;;;;;13.88;10.38;;;10.40;99.90;;;;;;4957713;28;20051;-80
2023/02/21 12:49:37;;;;;;;13.43;10.10;;;10.50;99.90;;;;;;4957348;28;20102;-81
2023/02/21 12:52:04;;;;;;;14.32;10.55;;;10.60;99.90;;;;;;4972886;28;20047;-80
2023/02/21 12:54:31;;;;;;;13.70;10.73;;;10.50;99.90;;;;;;4960700;28;20049;-81
2023/02/21 12:56:57;;;;;;;14.30;10.98;;;10.30;99.90;;;;;;4976274;28;20383;-80
2023/02/21 12:59:26;;;;;;;12.93;10.55;;;10.30;99.90;;;;;;4986351;28;20039;-81
2023/02/21 13:01:53;;;;;;;15.65;11.50;;;10.30;99.90;;;;;;4977609;28;20039;-81
2023/02/21 13:04:19;;;;;;;16.05;11.77;;;10.20;99.90;;;;;;4975537;28;20504;-81
2023/02/21 13:06:46;;;;;;;16.05;11.30;;;10.30;99.90;;;;;;4976518;28;20057;-80
2023/02/21 13:09:13;;;;;;;17.98;13.02;;;10.30;99.90;;;;;;4976175;28;20039;-81
2023/02/21 13:11:39;;;;;;;17.45;12.60;;;10.30;99.90;;;;;;4975315;28;20470;-80
2023/02/21 13:14:08;;;;;;;16.42;12.18;;;10.40;99.90;;;;;;4976357;28;20573;-81
2023/02/21 13:16:35;;;;;;;18.95;12.50;;;10.50;99.90;;;;;;4960254;28;20054;-80
2023/02/21 13:19:02;;;;;;;18.67;13.15;;;10.60;99.90;;;;;;4976032;28;20050;-80
2023/02/21 13:21:29;;;;;;;19.90;11.48;;;10.60;99.90;;;;;;4976958;28;20050;-80
2023/02/21 13:24:08;;;;;;;19.65;12.23;;;10.60;99.90;;;;;;4974807;28;20043;-81
2023/02/21 13:26:35;;;;;;;17.87;12.80;;;10.60;99.90;;;;;;4976161;28;20507;-82
2023/02/21 13:29:01;;;;;;;16.33;12.40;;;10.60;99.90;;;;;;4976881;28;20348;-81
2023/02/21 13:31:35;;;;;;;18.17;12.18;;;10.50;99.90;;;;;;4972956;28;20043;-81
2023/02/21 13:34:02;;;;;;;18.98;13.95;;;10.40;99.90;;;;;;4989632;28;20072;-82
2023/02/21 13:36:29;;;;;;;17.35;12.75;;;10.30;99.90;;;;;;4979603;28;20035;-80
2023/02/21 13:38:55;;;;;;;19.35;13.48;;;10.40;99.90;;;;;;4984891;28;20041;-81
2023/02/21 13:41:23;;;;;;;18.25;13.05;;;10.30;99.90;;;;;;4975906;28;20401;-82
2023/02/21 13:43:50;;;;;;;18.88;13.98;;;10.40;99.90;;;;;;4959758;28;20054;-81
2023/02/21 13:46:17;;;;;;;17.92;13.20;;;10.40;99.90;;;;;;4976452;28;20069;-80
2023/02/21 13:48:43;;;;;;;19.60;13.57;;;10.40;99.90;;;;;;4959347;28;20474;-81
2023/02/21 13:53:55;;;;;;;17.40;11.45;;;10.50;99.90;;;;;;4978370;28;20148;-81
2023/02/21 13:56:22;;;;;;;19.65;12.40;;;10.50;99.90;;;;;;4994228;28;20081;-83
2023/02/21 13:58:49;;;;;;;18.42;12.55;;;10.50;99.90;;;;;;4977961;28;20050;-83
2023/02/21 14:01:16;;;;;;;16.83;11.10;;;10.40;99.90;;;;;;4975768;28;20093;-81
2023/02/21 14:03:44;;;;;;;16.88;12.43;;;10.40;99.90;;;;;;4987832;28;20046;-81
2023/02/21 14:06:10;;;;;;;16.15;11.38;;;10.40;99.90;;;;;;4995581;28;20111;-81
2023/02/21 14:08:37;;;;;;;18.17;12.75;;;10.40;99.90;;;;;;4995150;28;20065;-81
2023/02/21 14:11:05;;;;;;;16.48;11.40;;;10.40;99.90;;;;;;4988429;28;20039;-82
2023/02/21 14:13:31;;;;;;;16.20;11.05;;;10.40;99.90;;;;;;4976149;28;20053;-82
2023/02/21 14:15:58;;;;;;;32.60;14.85;;;10.40;99.90;;;;;;4979355;28;20038;-83
2023/02/21 14:18:25;;;;;;;19.52;11.80;;;10.40;99.90;;;;;;4993388;28;20359;-84
2023/02/21 14:20:51;;;;;;;16.13;11.52;;;10.40;99.90;;;;;;4994388;28;20440;-85
2023/02/21 14:23:18;;;;;;;16.88;11.70;;;10.50;99.90;;;;;;4975049;28;20063;-82
2023/02/21 14:25:45;;;;;;;23.42;11.65;;;10.60;99.90;;;;;;4974146;28;20039;-84
2023/02/21 14:28:11;;;;;;;14.45;9.55;;;10.50;99.90;;;;;;4975817;28;20043;-82
2023/02/21 14:30:38;;;;;;;13.07;9.27;;;10.50;99.90;;;;;;4957655;28;20043;-84
2023/02/21 14:33:05;;;;;;;13.48;9.68;;;10.40;99.90;;;;;;4976272;28;20035;-83
2023/02/21 14:35:31;;;;;;;14.65;10.13;;;10.50;99.90;;;;;;4958832;28;20049;-82
2023/02/21 14:37:58;;;;;;;15.63;10.25;;;10.50;99.90;;;;;;4973681;28;20105;-83
2023/02/21 14:40:24;;;;;;;20.05;10.95;;;10.40;99.90;;;;;;4974876;28;20043;-84
2023/02/21 14:42:53;;;;;;;16.17;10.45;;;10.40;99.90;;;;;;4974926;28;20038;-83
2023/02/21 14:45:19;;;;;;;16.58;10.13;;;10.30;99.90;;;;;;4974943;28;20054;-83
2023/02/21 14:47:46;;;;;;;15.93;11.13;;;10.20;99.90;;;;;;4974315;28;20066;-83
2023/02/21 14:50:13;;;;;;;15.40;10.80;;;10.20;99.90;;;;;;4959013;28;20070;-84
2023/02/21 14:52:41;;;;;;;17.98;11.60;;;10.10;99.90;;;;;;4974761;28;20046;-83
2023/02/21 14:55:08;;;;;;;17.40;11.97;;;10.10;99.90;;;;;;4958664;28;20050;-83
2023/02/21 14:57:35;;;;;;;13.73;9.95;;;10.10;99.90;;;;;;4957632;28;20291;-84
2023/02/21 15:00:04;;;;;;;17.33;10.20;;;10.00;99.90;;;;;;4974616;28;20051;-82
2023/02/21 15:02:32;;;;;;;13.88;10.48;;;10.00;99.90;;;;;;4974554;28;20043;-82